Time;durP1;ratioP1;P1;durP2;ratioP2;P2;SDS_P1;SDS_P2;PMS_P1;PMS_P2;Temp;Humidity;BMP_temperature;BMP_pressure;BME280_temperature;BME280_humidity;BME280_pressure;Samples;Min_cycle;Max_cycle;Signal;HPM_P1;HPM_P2
2022/08/01 00:01:34;;;;;;;5.13;2.10;;;;;;;;;;4918050;29;20063;-46
2022/08/01 00:03:59;;;;;;;4.10;2.90;;;;;;;;;;4918296;29;20036;-45
2022/08/01 00:06:25;;;;;;;6.93;2.83;;;;;;;;;;4918253;29;20481;-46
2022/08/01 00:08:50;;;;;;;4.97;2.63;;;;;;;;;;4918150;29;20024;-45
2022/08/01 00:11:16;;;;;;;3.20;2.50;;;;;;;;;;4917955;29;20040;-46
2022/08/01 00:13:41;;;;;;;3.13;2.47;;;;;;;;;;4917722;29;20127;-46
2022/08/01 00:16:07;;;;;;;3.42;2.67;;;;;;;;;;4917801;29;20039;-54
2022/08/01 00:18:32;;;;;;;3.17;2.63;;;;;;;;;;4917983;29;20061;-53
2022/08/01 00:20:58;;;;;;;5.97;3.10;;;;;;;;;;4917731;29;20115;-46
2022/08/01 00:23:23;;;;;;;5.47;2.70;;;;;;;;;;4917611;29;20036;-50
2022/08/01 00:25:48;;;;;;;6.40;2.58;;;;;;;;;;4917773;29;20028;-46
2022/08/01 00:28:14;;;;;;;3.85;2.70;;;;;;;;;;4917447;29;20031;-45
2022/08/01 00:30:39;;;;;;;3.53;2.47;;;;;;;;;;4917565;29;20118;-49
2022/08/01 00:33:05;;;;;;;8.18;2.70;;;;;;;;;;4917722;29;20067;-45
2022/08/01 00:35:30;;;;;;;2.75;2.40;;;;;;;;;;4917693;29;20032;-52
2022/08/01 00:37:55;;;;;;;6.68;3.00;;;;;;;;;;4917663;29;20039;-53
2022/08/01 00:40:21;;;;;;;5.30;2.95;;;;;;;;;;4917366;29;20059;-55
2022/08/01 00:42:47;;;;;;;6.70;2.30;;;;;;;;;;4917269;29;20043;-53
2022/08/01 00:45:12;;;;;;;3.97;2.55;;;;;;;;;;4917294;29;20028;-49
2022/08/01 00:47:38;;;;;;;2.97;2.63;;;;;;;;;;4916339;29;20048;-52
2022/08/01 00:50:04;;;;;;;3.25;2.70;;;;;;;;;;4917511;29;20103;-45
2022/08/01 00:52:30;;;;;;;3.97;2.63;;;;;;;;;;4915756;29;20059;-44
2022/08/01 00:54:56;;;;;;;3.47;2.83;;;;;;;;;;4897902;29;20477;-44
2022/08/01 00:57:21;;;;;;;4.55;2.65;;;;;;;;;;4897249;29;20064;-45
2022/08/01 00:59:47;;;;;;;6.90;2.55;;;;;;;;;;4896069;29;20032;-48
2022/08/01 01:02:12;;;;;;;3.45;3.13;;;;;;;;;;4897227;29;20037;-54
2022/08/01 01:04:38;;;;;;;8.93;3.10;;;;;;;;;;4897077;29;20032;-56
2022/08/01 01:07:12;;;;;;;5.57;3.03;;;;;;;;;;4897409;29;20025;-47
2022/08/01 01:10:00;;;;;;;7.07;3.10;;;;;;;;;;4897337;29;20076;-54
2022/08/01 01:12:31;;;;;;;8.02;3.60;;;;;;;;;;4897339;29;20056;-58
2022/08/01 01:15:17;;;;;;;3.75;3.05;;;;;;;;;;4897046;29;20024;-51
2022/08/01 01:17:51;;;;;;;3.50;2.97;;;;;;;;;;4897285;29;20489;-55
2022/08/01 01:20:18;;;;;;;8.70;3.10;;;;;;;;;;4897253;29;20032;-49
2022/08/01 01:22:52;;;;;;;3.67;2.97;;;;;;;;;;4898577;29;20486;-45
2022/08/01 01:25:55;;;;;;;4.32;3.30;;;;;;;;;;4916927;29;20035;-45
2022/08/01 01:28:33;;;;;;;3.72;2.85;;;;;;;;;;4908216;29;20404;-46
2022/08/01 01:30:59;;;;;;;6.00;3.45;;;;;;;;;;4916521;29;20596;-50
2022/08/01 01:33:31;;;;;;;4.47;3.55;;;;;;;;;;4916524;29;20408;-52
2022/08/01 01:36:05;;;;;;;5.20;3.35;;;;;;;;;;4916782;29;20024;-53
2022/08/01 01:38:36;;;;;;;7.28;3.80;;;;;;;;;;4916678;29;20105;-55
2022/08/01 01:41:03;;;;;;;3.45;3.15;;;;;;;;;;4916507;29;20180;-57
2022/08/01 01:43:30;;;;;;;5.03;3.50;;;;;;;;;;4916275;29;20032;-45
2022/08/01 01:45:56;;;;;;;4.43;2.88;;;;;;;;;;4916762;29;20025;-46
2022/08/01 01:48:25;;;;;;;4.43;3.13;;;;;;;;;;4916300;29;20067;-45
2022/08/01 01:50:52;;;;;;;3.53;2.80;;;;;;;;;;4916275;29;20485;-44
2022/08/01 01:53:21;;;;;;;3.22;2.75;;;;;;;;;;4916584;29;20039;-49
2022/08/01 01:55:52;;;;;;;4.25;3.30;;;;;;;;;;4916300;29;20032;-54
2022/08/01 01:58:20;;;;;;;8.15;3.67;;;;;;;;;;4915562;29;20044;-48
2022/08/01 02:00:48;;;;;;;4.63;3.50;;;;;;;;;;4920402;29;20028;-48
2022/08/01 02:03:15;;;;;;;5.20;3.75;;;;;;;;;;4920433;29;20115;-51
2022/08/01 02:05:42;;;;;;;4.30;3.58;;;;;;;;;;4920092;29;20032;-50
2022/08/01 02:08:08;;;;;;;5.95;3.47;;;;;;;;;;4920321;29;20060;-49
2022/08/01 02:10:35;;;;;;;6.70;3.42;;;;;;;;;;4920411;29;20098;-52
2022/08/01 02:13:04;;;;;;;8.63;3.80;;;;;;;;;;4920299;29;20108;-53
2022/08/01 02:15:31;;;;;;;5.28;3.40;;;;;;;;;;4919990;29;20036;-55
2022/08/01 02:17:57;;;;;;;5.97;3.80;;;;;;;;;;4920205;29;20028;-52
2022/08/01 02:20:24;;;;;;;4.97;3.70;;;;;;;;;;4920253;29;20032;-53
2022/08/01 02:22:55;;;;;;;7.43;3.88;;;;;;;;;;4910005;29;20127;-45
2022/08/01 02:25:31;;;;;;;6.25;4.40;;;;;;;;;;4900196;29;20029;-49
2022/08/01 02:28:03;;;;;;;5.30;3.88;;;;;;;;;;4900015;29;20036;-50
2022/08/01 02:30:35;;;;;;;5.30;3.28;;;;;;;;;;4900016;29;20029;-51
2022/08/01 02:33:27;;;;;;;6.13;3.70;;;;;;;;;;4899826;29;20085;-47
2022/08/01 02:35:56;;;;;;;5.10;3.42;;;;;;;;;;4899389;29;20048;-45
2022/08/01 02:38:24;;;;;;;8.80;3.57;;;;;;;;;;4900013;29;20172;-45
2022/08/01 02:40:52;;;;;;;5.70;3.38;;;;;;;;;;4899712;29;20354;-46
2022/08/01 02:43:21;;;;;;;4.90;3.35;;;;;;;;;;4900506;29;20042;-46
2022/08/01 02:45:51;;;;;;;5.32;3.72;;;;;;;;;;4900851;29;20033;-45
2022/08/01 02:48:18;;;;;;;7.13;3.50;;;;;;;;;;4900532;29;20056;-45
2022/08/01 02:50:46;;;;;;;4.65;3.78;;;;;;;;;;4900739;29;20069;-52
2022/08/01 02:53:13;;;;;;;5.47;3.90;;;;;;;;;;4913339;29;20032;-45
2022/08/01 02:55:41;;;;;;;4.20;3.60;;;;;;;;;;4919351;29;20046;-47
2022/08/01 02:58:08;;;;;;;10.07;3.75;;;;;;;;;;4919107;29;20036;-55
2022/08/01 03:00:34;;;;;;;4.32;3.60;;;;;;;;;;4919164;29;20032;-45
2022/08/01 03:03:02;;;;;;;5.22;3.80;;;;;;;;;;4919018;29;20040;-46
2022/08/01 03:05:30;;;;;;;4.80;3.67;;;;;;;;;;4919307;29;20032;-45
2022/08/01 03:07:57;;;;;;;5.50;3.60;;;;;;;;;;4919022;29;20453;-51
2022/08/01 03:10:25;;;;;;;13.38;3.90;;;;;;;;;;4917960;29;20030;-50
2022/08/01 03:12:51;;;;;;;6.22;3.92;;;;;;;;;;4919249;29;20103;-51
2022/08/01 03:15:19;;;;;;;6.10;3.83;;;;;;;;;;4918917;29;20032;-49
2022/08/01 03:17:46;;;;;;;4.88;3.72;;;;;;;;;;4917685;29;20499;-51
2022/08/01 03:20:14;;;;;;;8.15;3.78;;;;;;;;;;4919126;29;20099;-46
2022/08/01 03:22:42;;;;;;;8.30;3.75;;;;;;;;;;4918853;29;20094;-49
2022/08/01 03:25:08;;;;;;;4.75;4.05;;;;;;;;;;4918792;29;20028;-46
2022/08/01 03:27:36;;;;;;;5.85;3.25;;;;;;;;;;4918655;29;20031;-51
2022/08/01 03:30:04;;;;;;;4.20;3.80;;;;;;;;;;4918919;29;20032;-54
2022/08/01 03:32:30;;;;;;;7.18;3.92;;;;;;;;;;4918917;29;20043;-45
2022/08/01 03:34:57;;;;;;;3.92;3.53;;;;;;;;;;4918937;29;20095;-46
2022/08/01 03:37:28;;;;;;;6.57;4.25;;;;;;;;;;4933150;29;20087;-48
2022/08/01 03:40:31;;;;;;;4.00;3.60;;;;;;;;;;4918564;29;20051;-46
2022/08/01 03:43:04;;;;;;;7.93;4.22;;;;;;;;;;4911854;29;20048;-45
2022/08/01 03:45:39;;;;;;;5.25;3.75;;;;;;;;;;4918675;29;20079;-57
2022/08/01 03:48:14;;;;;;;5.97;3.95;;;;;;;;;;4918136;29;20143;-55
2022/08/01 03:50:48;;;;;;;4.60;4.13;;;;;;;;;;4918582;29;20035;-58
2022/08/01 03:53:15;;;;;;;4.45;3.65;;;;;;;;;;4879730;29;20471;-58
2022/08/01 03:55:43;;;;;;;4.15;3.33;;;;;;;;;;4879749;29;20033;-57
2022/08/01 03:58:10;;;;;;;5.53;3.55;;;;;;;;;;4879713;29;20033;-59
2022/08/01 04:00:38;;;;;;;3.38;3.08;;;;;;;;;;4879870;29;20036;-58
2022/08/01 04:03:05;;;;;;;3.33;3.00;;;;;;;;;;4879586;29;20025;-58
2022/08/01 04:05:31;;;;;;;4.90;3.10;;;;;;;;;;4879783;29;20029;-54
2022/08/01 04:07:56;;;;;;;3.33;2.80;;;;;;;;;;4879862;29;20553;-51
2022/08/01 04:10:23;;;;;;;4.43;3.00;;;;;;;;;;4880675;29;20119;-54
2022/08/01 04:12:49;;;;;;;6.55;3.38;;;;;;;;;;4880566;29;20053;-51
2022/08/01 04:15:14;;;;;;;9.32;3.13;;;;;;;;;;4880476;29;20063;-47
2022/08/01 04:17:40;;;;;;;3.75;2.95;;;;;;;;;;4880365;29;20033;-56
2022/08/01 04:20:06;;;;;;;5.07;2.70;;;;;;;;;;4880476;29;20096;-55
2022/08/01 04:22:31;;;;;;;10.07;3.10;;;;;;;;;;4910884;29;20060;-53
2022/08/01 04:24:59;;;;;;;9.40;3.00;;;;;;;;;;4917630;29;20032;-51
2022/08/01 04:27:38;;;;;;;8.88;2.95;;;;;;;;;;4917567;29;20112;-53
2022/08/01 04:30:06;;;;;;;5.35;3.03;;;;;;;;;;4917609;29;20024;-49
2022/08/01 04:32:34;;;;;;;6.38;3.00;;;;;;;;;;4917446;29;20043;-55
2022/08/01 04:35:04;;;;;;;9.98;3.40;;;;;;;;;;4917744;29;20032;-55
2022/08/01 04:37:30;;;;;;;17.98;3.47;;;;;;;;;;4917483;29;20036;-54
2022/08/01 04:39:59;;;;;;;6.25;2.90;;;;;;;;;;4917623;29;20036;-56
2022/08/01 04:42:24;;;;;;;5.75;2.95;;;;;;;;;;4917207;29;20107;-54
2022/08/01 04:44:50;;;;;;;4.47;2.92;;;;;;;;;;4917434;29;20111;-51
2022/08/01 04:47:16;;;;;;;9.45;2.88;;;;;;;;;;4917011;29;20036;-50
2022/08/01 04:49:43;;;;;;;3.00;2.65;;;;;;;;;;4917309;29;20036;-52
2022/08/01 04:52:08;;;;;;;4.70;2.97;;;;;;;;;;4917180;29;20115;-50
2022/08/01 04:54:37;;;;;;;3.08;2.60;;;;;;;;;;4917371;29;20062;-54
2022/08/01 04:57:05;;;;;;;4.78;2.70;;;;;;;;;;4917292;29;20115;-49
2022/08/01 04:59:40;;;;;;;8.32;2.67;;;;;;;;;;4916910;29;20077;-52
2022/08/01 05:02:12;;;;;;;2.97;2.60;;;;;;;;;;4916965;29;20028;-50
2022/08/01 05:04:39;;;;;;;5.78;2.80;;;;;;;;;;4917046;29;20032;-50
2022/08/01 05:07:06;;;;;;;5.18;2.65;;;;;;;;;;4917019;29;20024;-51
2022/08/01 05:09:31;;;;;;;4.88;2.55;;;;;;;;;;4916980;29;20032;-50
2022/08/01 05:11:58;;;;;;;6.07;2.60;;;;;;;;;;4916729;29;20047;-49
2022/08/01 05:14:25;;;;;;;3.75;2.88;;;;;;;;;;4916959;29;20024;-49
2022/08/01 05:16:51;;;;;;;5.47;2.55;;;;;;;;;;4916995;29;20047;-48
2022/08/01 05:19:17;;;;;;;5.13;2.42;;;;;;;;;;4916894;29;20052;-52
2022/08/01 05:21:42;;;;;;;8.20;3.38;;;;;;;;;;4900057;29;20174;-49
2022/08/01 05:24:08;;;;;;;3.97;2.40;;;;;;;;;;4896787;29;20036;-51
2022/08/01 05:26:33;;;;;;;3.03;2.30;;;;;;;;;;4897013;29;20119;-48
2022/08/01 05:28:59;;;;;;;6.35;2.30;;;;;;;;;;4896635;29;20033;-50
2022/08/01 05:31:25;;;;;;;8.65;2.40;;;;;;;;;;4897015;29;20177;-48
2022/08/01 05:33:50;;;;;;;6.30;1.98;;;;;;;;;;4896351;29;20029;-47
2022/08/01 05:36:16;;;;;;;5.40;2.17;;;;;;;;;;4897622;29;20033;-47
2022/08/01 05:38:41;;;;;;;3.42;2.20;;;;;;;;;;4897539;29;20033;-46
2022/08/01 05:41:07;;;;;;;2.78;2.08;;;;;;;;;;4897412;29;20060;-49
2022/08/01 05:43:32;;;;;;;4.03;2.10;;;;;;;;;;4898349;29;20108;-45
2022/08/01 05:45:58;;;;;;;4.40;2.60;;;;;;;;;;4897440;29;20043;-50
2022/08/01 05:48:23;;;;;;;3.03;2.22;;;;;;;;;;4897431;29;20052;-47
2022/08/01 05:50:49;;;;;;;6.97;2.35;;;;;;;;;;4905402;29;20071;-51
2022/08/01 05:53:14;;;;;;;11.50;2.20;;;;;;;;;;4914588;29;20043;-52
2022/08/01 05:55:40;;;;;;;3.60;2.20;;;;;;;;;;4914530;29;20028;-46
2022/08/01 05:58:05;;;;;;;3.03;2.40;;;;;;;;;;4914722;29;20035;-49
2022/08/01 06:00:31;;;;;;;4.30;2.10;;;;;;;;;;4914311;29;20032;-46
2022/08/01 06:02:56;;;;;;;4.22;2.10;;;;;;;;;;4914451;29;20167;-55
2022/08/01 06:05:22;;;;;;;2.50;1.92;;;;;;;;;;4914439;29;20385;-51
2022/08/01 06:07:47;;;;;;;3.63;2.13;;;;;;;;;;4914958;29;20028;-49
2022/08/01 06:10:12;;;;;;;4.78;2.10;;;;;;;;;;4916299;29;20025;-47
2022/08/01 06:12:38;;;;;;;3.85;2.38;;;;;;;;;;4916444;29;20032;-47
2022/08/01 06:15:07;;;;;;;3.05;1.92;;;;;;;;;;4916107;29;20465;-49
2022/08/01 06:17:32;;;;;;;;;;;;;;;;;;4916489;29;20608;-48
2022/08/01 06:19:59;;;;;;;4.45;2.00;;;;;;;;;;4915958;29;19950;-47
2022/08/01 06:22:24;;;;;;;3.67;2.30;;;;;;;;;;4915933;29;20037;-47
2022/08/01 06:24:49;;;;;;;5.95;2.10;;;;;;;;;;4915830;29;20099;-48
2022/08/01 06:27:15;;;;;;;2.33;1.80;;;;;;;;;;4916097;29;20027;-49
2022/08/01 06:29:42;;;;;;;3.15;2.60;;;;;;;;;;4915888;29;20024;-47
2022/08/01 06:32:09;;;;;;;9.18;2.65;;;;;;;;;;4916308;29;20125;-47
2022/08/01 06:34:34;;;;;;;6.13;3.15;;;;;;;;;;4914653;29;20024;-47
2022/08/01 06:37:00;;;;;;;8.75;2.30;;;;;;;;;;4915240;29;20038;-50
2022/08/01 06:39:25;;;;;;;2.80;2.08;;;;;;;;;;4915997;29;20024;-52
2022/08/01 06:41:51;;;;;;;3.05;2.30;;;;;;;;;;4915641;29;20433;-48
2022/08/01 06:44:16;;;;;;;3.72;2.10;;;;;;;;;;4916085;29;20028;-48
2022/08/01 06:46:42;;;;;;;6.57;2.10;;;;;;;;;;4919488;29;20028;-49
2022/08/01 06:49:07;;;;;;;4.80;2.30;;;;;;;;;;4915745;29;20045;-48
2022/08/01 06:51:32;;;;;;;1.80;1.55;;;;;;;;;;4899788;29;20083;-48
2022/08/01 06:53:58;;;;;;;9.98;2.20;;;;;;;;;;4899410;29;20029;-48
2022/08/01 06:56:23;;;;;;;2.33;1.70;;;;;;;;;;4899673;29;20037;-49
2022/08/01 06:58:50;;;;;;;6.38;2.22;;;;;;;;;;4899295;29;20033;-50
2022/08/01 07:01:15;;;;;;;4.05;1.83;;;;;;;;;;4899454;29;20478;-50
2022/08/01 07:03:40;;;;;;;5.57;1.80;;;;;;;;;;4900451;29;20115;-51
2022/08/01 07:06:06;;;;;;;7.00;2.05;;;;;;;;;;4903579;29;20028;-50
2022/08/01 07:08:31;;;;;;;2.28;2.08;;;;;;;;;;4916975;29;20028;-50
2022/08/01 07:10:59;;;;;;;4.50;1.73;;;;;;;;;;4917385;29;20064;-47
2022/08/01 07:13:26;;;;;;;4.53;2.05;;;;;;;;;;4917406;29;20104;-47
2022/08/01 07:15:52;;;;;;;5.72;2.05;;;;;;;;;;4917188;29;20028;-49
2022/08/01 07:18:18;;;;;;;2.13;1.80;;;;;;;;;;4917313;29;20036;-47
2022/08/01 07:20:45;;;;;;;3.67;2.03;;;;;;;;;;4901712;29;20041;-48
2022/08/01 07:23:12;;;;;;;5.88;1.80;;;;;;;;;;4897816;29;20041;-52
2022/08/01 07:25:37;;;;;;;5.18;1.80;;;;;;;;;;4898269;29;20080;-49
2022/08/01 07:28:03;;;;;;;4.53;1.90;;;;;;;;;;4898797;29;20401;-48
2022/08/01 07:30:28;;;;;;;20.48;3.05;;;;;;;;;;4898876;29;20039;-47
2022/08/01 07:32:54;;;;;;;2.65;1.70;;;;;;;;;;4898005;29;20040;-47
2022/08/01 07:35:19;;;;;;;3.33;1.90;;;;;;;;;;4898169;29;20036;-47
2022/08/01 07:37:45;;;;;;;2.15;1.55;;;;;;;;;;4897774;29;20040;-47
2022/08/01 07:40:10;;;;;;;1.60;1.50;;;;;;;;;;4898846;29;20043;-52
2022/08/01 07:42:36;;;;;;;5.43;1.63;;;;;;;;;;4899593;29;20287;-48
2022/08/01 07:45:01;;;;;;;3.70;1.73;;;;;;;;;;4899777;29;20164;-49
2022/08/01 07:47:27;;;;;;;3.70;1.65;;;;;;;;;;4898686;29;20029;-48
2022/08/01 07:49:59;;;;;;;1.85;1.70;;;;;;;;;;4899119;29;20032;-50
2022/08/01 07:52:24;;;;;;;3.38;1.50;;;;;;;;;;4899633;29;20120;-47
2022/08/01 07:54:49;;;;;;;2.55;1.75;;;;;;;;;;4899218;29;20115;-48
2022/08/01 07:57:15;;;;;;;4.93;1.77;;;;;;;;;;4898986;29;20029;-49
2022/08/01 07:59:40;;;;;;;1.77;1.45;;;;;;;;;;4899190;29;20068;-51
2022/08/01 08:02:06;;;;;;;4.57;1.50;;;;;;;;;;4899494;29;20032;-51
2022/08/01 08:04:31;;;;;;;1.77;1.67;;;;;;;;;;4899138;29;20377;-50
2022/08/01 08:06:56;;;;;;;3.22;1.75;;;;;;;;;;4898253;29;20028;-51
2022/08/01 08:09:22;;;;;;;5.32;2.25;;;;;;;;;;4904635;29;20036;-50
2022/08/01 08:11:48;;;;;;;2.30;1.75;;;;;;;;;;4902111;29;20466;-50
2022/08/01 08:14:14;;;;;;;3.08;1.67;;;;;;;;;;4906183;29;20036;-49
2022/08/01 08:16:40;;;;;;;1.60;1.40;;;;;;;;;;4906515;29;20044;-48
2022/08/01 08:19:05;;;;;;;4.60;1.90;;;;;;;;;;4904713;29;20027;-49
2022/08/01 08:21:30;;;;;;;6.90;1.63;;;;;;;;;;4906273;29;20024;-53
2022/08/01 08:26:40;;;;;;;6.30;1.55;;;;;;;;;;4903317;29;20462;-51
2022/08/01 08:29:06;;;;;;;4.65;1.80;;;;;;;;;;4896405;29;20107;-54
2022/08/01 08:31:31;;;;;;;3.00;1.77;;;;;;;;;;4896364;29;20028;-51
2022/08/01 08:33:58;;;;;;;2.58;1.40;;;;;;;;;;4895864;29;20059;-52
2022/08/01 08:36:24;;;;;;;2.05;1.60;;;;;;;;;;4896313;29;20028;-51
2022/08/01 08:38:49;;;;;;;3.03;1.70;;;;;;;;;;4896221;29;20086;-52
2022/08/01 08:41:15;;;;;;;7.45;1.80;;;;;;;;;;4896013;29;20044;-50
2022/08/01 08:43:41;;;;;;;4.20;1.67;;;;;;;;;;4897169;29;20029;-51
2022/08/01 08:46:08;;;;;;;7.82;1.98;;;;;;;;;;4904460;29;20024;-51
2022/08/01 08:48:35;;;;;;;2.88;1.83;;;;;;;;;;4905358;29;20099;-48
2022/08/01 08:51:01;;;;;;;3.70;2.00;;;;;;;;;;4904587;29;20032;-49
2022/08/01 08:53:27;;;;;;;1.90;1.80;;;;;;;;;;4907324;29;20036;-48
2022/08/01 08:55:56;;;;;;;3.30;1.85;;;;;;;;;;4896565;29;20084;-53
2022/08/01 08:58:25;;;;;;;3.13;1.92;;;;;;;;;;4895528;29;20036;-49
2022/08/01 09:00:50;;;;;;;6.80;2.50;;;;;;;;;;4898626;29;20043;-53
2022/08/01 09:03:16;;;;;;;3.20;2.20;;;;;;;;;;4897041;29;20029;-53
2022/08/01 09:05:42;;;;;;;2.33;1.90;;;;;;;;;;4897262;29;20057;-51
2022/08/01 09:08:08;;;;;;;2.83;1.98;;;;;;;;;;4897744;29;20108;-53
2022/08/01 09:10:34;;;;;;;4.40;2.30;;;;;;;;;;4896640;29;20494;-47
2022/08/01 09:13:05;;;;;;;4.18;1.95;;;;;;;;;;4896468;29;20462;-53
2022/08/01 09:15:55;;;;;;;4.38;2.28;;;;;;;;;;4896783;29;20409;-50
2022/08/01 09:18:30;;;;;;;6.10;2.05;;;;;;;;;;4896303;29;20028;-48
2022/08/01 09:21:19;;;;;;;6.25;2.78;;;;;;;;;;4896759;29;20025;-51
2022/08/01 09:23:51;;;;;;;4.90;2.40;;;;;;;;;;4897479;29;20711;-53
2022/08/01 09:26:32;;;;;;;4.35;2.33;;;;;;;;;;4899829;29;20028;-51
2022/08/01 09:28:59;;;;;;;8.07;2.55;;;;;;;;;;4896856;29;20044;-48
2022/08/01 09:31:26;;;;;;;3.25;2.15;;;;;;;;;;4914957;29;20062;-47
2022/08/01 09:33:57;;;;;;;2.53;2.22;;;;;;;;;;4915007;29;20024;-49
2022/08/01 09:36:48;;;;;;;6.75;2.28;;;;;;;;;;4906907;29;20367;-52
2022/08/01 09:39:14;;;;;;;2.17;1.85;;;;;;;;;;4896055;29;20025;-54
2022/08/01 09:41:40;;;;;;;4.53;1.83;;;;;;;;;;4895961;29;20028;-52
2022/08/01 09:44:06;;;;;;;2.13;1.92;;;;;;;;;;4896087;29;20503;-51
2022/08/01 09:46:31;;;;;;;7.57;1.90;;;;;;;;;;4895825;29;20549;-49
2022/08/01 09:49:05;;;;;;;4.75;1.90;;;;;;;;;;4913469;29;20075;-48
2022/08/01 09:51:37;;;;;;;1.85;1.75;;;;;;;;;;4916045;29;20528;-47
2022/08/01 09:54:07;;;;;;;3.17;1.75;;;;;;;;;;4909748;29;20172;-47
2022/08/01 09:56:42;;;;;;;2.03;1.90;;;;;;;;;;4912468;29;20036;-53
2022/08/01 09:59:08;;;;;;;1.90;1.80;;;;;;;;;;4914757;29;20107;-52
2022/08/01 10:01:49;;;;;;;2.25;1.88;;;;;;;;;;4902396;29;20056;-54
2022/08/01 10:04:18;;;;;;;3.33;2.28;;;;;;;;;;4898391;29;20032;-49
2022/08/01 10:06:49;;;;;;;3.55;2.25;;;;;;;;;;4904819;29;20040;-48
2022/08/01 10:09:14;;;;;;;6.88;2.92;;;;;;;;;;4906273;29;20051;-49
2022/08/01 10:11:42;;;;;;;6.47;3.30;;;;;;;;;;4910280;29;20485;-49
2022/08/01 10:14:07;;;;;;;4.78;2.10;;;;;;;;;;4916245;29;20028;-52
2022/08/01 10:16:35;;;;;;;3.92;2.17;;;;;;;;;;4915912;29;20024;-49
2022/08/01 10:19:03;;;;;;;25.20;3.58;;;;;;;;;;4913820;29;20039;-50
2022/08/01 10:21:32;;;;;;;6.72;2.33;;;;;;;;;;4901050;29;20028;-51
2022/08/01 10:23:59;;;;;;;10.90;2.40;;;;;;;;;;4899004;29;20040;-48
2022/08/01 10:26:26;;;;;;;4.45;1.83;;;;;;;;;;4899358;29;20025;-51
2022/08/01 10:28:53;;;;;;;4.32;1.90;;;;;;;;;;4905331;29;20044;-52
2022/08/01 10:31:19;;;;;;;3.10;1.92;;;;;;;;;;4918113;29;20560;-50
2022/08/01 10:33:44;;;;;;;12.65;2.20;;;;;;;;;;4919769;29;20032;-52
2022/08/01 10:36:10;;;;;;;2.47;1.90;;;;;;;;;;4917739;29;20032;-50
2022/08/01 10:38:36;;;;;;;5.47;2.42;;;;;;;;;;4919267;29;20063;-51
2022/08/01 10:41:04;;;;;;;2.67;2.10;;;;;;;;;;4917647;29;20495;-52
2022/08/01 10:43:29;;;;;;;2.28;1.95;;;;;;;;;;4919281;29;20040;-50
2022/08/01 10:45:55;;;;;;;3.97;2.05;;;;;;;;;;4905745;29;20025;-51
2022/08/01 10:48:24;;;;;;;2.15;1.70;;;;;;;;;;4903668;29;20413;-50
2022/08/01 10:50:52;;;;;;;6.57;2.10;;;;;;;;;;4905284;29;20036;-48
2022/08/01 10:53:20;;;;;;;5.60;1.85;;;;;;;;;;4895679;29;20036;-48
2022/08/01 10:55:49;;;;;;;5.10;1.83;;;;;;;;;;4900555;29;20430;-49
2022/08/01 10:58:37;;;;;;;2.30;1.60;;;;;;;;;;4904634;29;20031;-54
2022/08/01 11:01:14;;;;;;;4.57;1.80;;;;;;;;;;4905271;29;20033;-51
2022/08/01 11:03:55;;;;;;;4.43;1.65;;;;;;;;;;4908622;29;20404;-49
2022/08/01 11:06:32;;;;;;;6.47;1.80;;;;;;;;;;4899315;29;20040;-52
2022/08/01 11:08:58;;;;;;;4.80;2.38;;;;;;;;;;4913707;29;20056;-52
2022/08/01 11:11:23;;;;;;;10.23;2.20;;;;;;;;;;4913549;29;20103;-55
2022/08/01 11:13:58;;;;;;;6.20;2.08;;;;;;;;;;4909287;29;20104;-55
2022/08/01 11:16:35;;;;;;;2.58;1.98;;;;;;;;;;4906928;29;20083;-52
2022/08/01 11:19:02;;;;;;;9.77;2.30;;;;;;;;;;4917109;29;20032;-51
2022/08/01 11:21:53;;;;;;;4.05;1.90;;;;;;;;;;4903024;29;20032;-49
2022/08/01 11:24:47;;;;;;;6.03;1.95;;;;;;;;;;4900132;29;20032;-53
2022/08/01 11:27:21;;;;;;;7.32;2.25;;;;;;;;;;4903218;29;20107;-47
2022/08/01 11:30:08;;;;;;;9.23;1.92;;;;;;;;;;4902673;29;20025;-50
2022/08/01 11:32:50;;;;;;;4.97;2.25;;;;;;;;;;4889613;29;20025;-49
2022/08/01 11:35:17;;;;;;;4.95;1.98;;;;;;;;;;4905166;29;20060;-51
2022/08/01 11:37:43;;;;;;;5.22;1.83;;;;;;;;;;4898300;29;20032;-51
2022/08/01 11:40:18;;;;;;;2.15;1.85;;;;;;;;;;4898306;29;20031;-50
2022/08/01 11:42:44;;;;;;;3.53;1.85;;;;;;;;;;4879481;29;20137;-45
2022/08/01 11:45:11;;;;;;;3.85;1.80;;;;;;;;;;4887781;29;20517;-47
2022/08/01 11:47:47;;;;;;;5.28;1.80;;;;;;;;;;4894137;29;20450;-48
2022/08/01 11:50:28;;;;;;;3.55;1.60;;;;;;;;;;4893787;29;20613;-47
2022/08/01 11:53:15;;;;;;;10.73;2.20;;;;;;;;;;4901832;29;20044;-47
2022/08/01 11:55:51;;;;;;;17.52;2.40;;;;;;;;;;4906887;29;20037;-48
2022/08/01 11:58:26;;;;;;;6.38;2.00;;;;;;;;;;4905312;29;20039;-47
2022/08/01 12:00:57;;;;;;;3.72;1.95;;;;;;;;;;4902474;29;20470;-50
2022/08/01 12:03:31;;;;;;;3.40;1.90;;;;;;;;;;4891041;29;20536;-47
2022/08/01 12:05:58;;;;;;;11.73;2.60;;;;;;;;;;4881261;29;20060;-47
2022/08/01 12:08:36;;;;;;;19.60;2.42;;;;;;;;;;4881396;29;20073;-47
2022/08/01 12:11:03;;;;;;;4.80;1.83;;;;;;;;;;4915859;29;20040;-47
2022/08/01 12:13:41;;;;;;;23.35;2.30;;;;;;;;;;4923066;29;20060;-46
2022/08/01 12:16:08;;;;;;;4.13;2.30;;;;;;;;;;4917064;29;20031;-48
2022/08/01 12:18:42;;;;;;;10.52;2.22;;;;;;;;;;4916129;29;20028;-47
2022/08/01 12:21:07;;;;;;;5.70;1.75;;;;;;;;;;4916210;29;20034;-51
2022/08/01 12:23:33;;;;;;;7.70;2.00;;;;;;;;;;4912076;29;20028;-48
2022/08/01 12:25:59;;;;;;;11.18;2.25;;;;;;;;;;4892216;29;20371;-49
2022/08/01 12:28:26;;;;;;;17.15;2.83;;;;;;;;;;4886337;29;20412;-45
2022/08/01 12:30:51;;;;;;;5.20;2.10;;;;;;;;;;4887752;29;20397;-45
2022/08/01 12:33:20;;;;;;;3.45;1.75;;;;;;;;;;4886036;29;20032;-47
2022/08/01 12:35:45;;;;;;;4.20;1.83;;;;;;;;;;4913924;29;20123;-49
2022/08/01 12:38:24;;;;;;;3.03;1.65;;;;;;;;;;4916503;29;20107;-46
2022/08/01 12:40:50;;;;;;;;;;;;;;;;;;4917650;29;20064;-45
2022/08/01 12:43:25;;;;;;;4.47;2.05;;;;;;;;;;4910972;29;20277;-45
2022/08/01 12:45:52;;;;;;;4.82;2.38;;;;;;;;;;4898002;29;20048;-49
2022/08/01 12:48:18;;;;;;;3.83;1.73;;;;;;;;;;4896580;29;20048;-47
2022/08/01 12:50:47;;;;;;;2.47;1.55;;;;;;;;;;4896960;29;20108;-47
2022/08/01 12:53:18;;;;;;;3.42;1.77;;;;;;;;;;4896669;29;20092;-49
2022/08/01 12:55:55;;;;;;;1.65;1.50;;;;;;;;;;4897403;29;20073;-48
2022/08/01 12:58:21;;;;;;;5.70;1.60;;;;;;;;;;4896770;29;20032;-48
2022/08/01 13:00:49;;;;;;;1.92;1.58;;;;;;;;;;4896842;29;20033;-46
2022/08/01 13:03:17;;;;;;;2.42;1.63;;;;;;;;;;4897159;29;20029;-45
2022/08/01 13:05:57;;;;;;;1.80;1.30;;;;;;;;;;4897326;29;20078;-47
2022/08/01 13:08:23;;;;;;;;;;;;;;;;;;4897059;29;20075;-45
2022/08/01 13:10:49;;;;;;;2.55;1.70;;;;;;;;;;4896617;29;20015;-46
2022/08/01 13:13:16;;;;;;;5.28;1.63;;;;;;;;;;4896624;29;20028;-49
2022/08/01 13:15:44;;;;;;;4.85;1.60;;;;;;;;;;4896321;29;20024;-50
2022/08/01 13:18:47;;;;;;;9.07;2.40;;;;;;;;;;4896212;29;20473;-48
2022/08/01 13:21:16;;;;;;;5.72;2.05;;;;;;;;;;4876005;29;20128;-48
2022/08/01 13:24:03;;;;;;;10.85;2.58;;;;;;;;;;4896464;29;20063;-44
2022/08/01 13:26:50;;;;;;;7.85;1.75;;;;;;;;;;4896340;29;20123;-46
2022/08/01 13:29:18;;;;;;;4.15;2.45;;;;;;;;;;4896377;29;20075;-47
2022/08/01 13:31:44;;;;;;;2.90;1.80;;;;;;;;;;4896404;29;20087;-50
2022/08/01 13:34:10;;;;;;;1.83;1.67;;;;;;;;;;4895918;29;20131;-49
2022/08/01 13:36:37;;;;;;;2.03;1.63;;;;;;;;;;4894736;29;20033;-50
2022/08/01 13:41:48;;;;;;;4.38;1.73;;;;;;;;;;4900876;29;20031;-47
2022/08/01 13:44:14;;;;;;;2.50;1.98;;;;;;;;;;4900464;29;20040;-48
2022/08/01 13:46:41;;;;;;;3.67;2.10;;;;;;;;;;4895882;29;20039;-48
2022/08/01 13:49:08;;;;;;;9.23;2.70;;;;;;;;;;4897169;29;20045;-49
2022/08/01 13:51:35;;;;;;;9.38;3.03;;;;;;;;;;4915396;29;20035;-47
2022/08/01 13:54:00;;;;;;;4.95;2.00;;;;;;;;;;4914587;29;20396;-49
2022/08/01 13:56:29;;;;;;;2.42;2.22;;;;;;;;;;4916444;29;20035;-46
2022/08/01 13:58:56;;;;;;;5.35;2.15;;;;;;;;;;4915148;29;20495;-45
2022/08/01 14:01:21;;;;;;;4.13;2.13;;;;;;;;;;4916359;29;20485;-43
2022/08/01 14:03:47;;;;;;;3.28;2.10;;;;;;;;;;4915432;29;20060;-45
2022/08/01 14:06:15;;;;;;;2.67;2.10;;;;;;;;;;4916386;29;20031;-46
2022/08/01 14:08:41;;;;;;;4.65;2.00;;;;;;;;;;4916440;29;20396;-45
2022/08/01 14:11:07;;;;;;;4.93;1.98;;;;;;;;;;4916856;29;20433;-47
2022/08/01 14:13:33;;;;;;;7.82;2.25;;;;;;;;;;4915065;29;20135;-46
2022/08/01 14:15:58;;;;;;;2.63;2.25;;;;;;;;;;4916231;29;20028;-45
2022/08/01 14:18:24;;;;;;;8.43;2.20;;;;;;;;;;4917005;29;20020;-43
2022/08/01 14:20:49;;;;;;;2.30;2.10;;;;;;;;;;4916530;29;20214;-45
2022/08/01 14:23:15;;;;;;;2.20;2.00;;;;;;;;;;4917479;29;20032;-44
2022/08/01 14:25:41;;;;;;;3.42;2.03;;;;;;;;;;4917917;29;20036;-44
2022/08/01 14:28:07;;;;;;;3.03;2.10;;;;;;;;;;4916391;29;20469;-44
2022/08/01 14:30:33;;;;;;;4.15;2.05;;;;;;;;;;4917011;29;20024;-44
2022/08/01 14:32:59;;;;;;;7.00;2.55;;;;;;;;;;4916084;29;20032;-44
2022/08/01 14:35:25;;;;;;;4.22;2.10;;;;;;;;;;4915867;29;20032;-47
2022/08/01 14:37:51;;;;;;;3.72;1.92;;;;;;;;;;4916120;29;20028;-45
2022/08/01 14:40:16;;;;;;;5.10;2.00;;;;;;;;;;4916009;29;20021;-46
2022/08/01 14:42:44;;;;;;;4.57;2.33;;;;;;;;;;4916188;29;20437;-46
2022/08/01 14:45:10;;;;;;;10.38;2.63;;;;;;;;;;4916127;29;20389;-45
2022/08/01 14:47:39;;;;;;;9.35;2.40;;;;;;;;;;4915717;29;20028;-46
2022/08/01 14:50:07;;;;;;;3.70;1.98;;;;;;;;;;4915550;29;20135;-45
2022/08/01 14:52:33;;;;;;;9.40;2.45;;;;;;;;;;4916018;29;20040;-46
2022/08/01 14:54:59;;;;;;;2.03;1.88;;;;;;;;;;4915719;29;20657;-46
2022/08/01 14:57:25;;;;;;;2.50;1.92;;;;;;;;;;4915788;29;20296;-46